Flight Track Log - Related Links

Times and Time Zones

All times are in EDT time to prevent confusion due to time zone crossing. See the SWA2003 flight status page for this flight to view local times or setup timezone preferences in your user account.

Time Position Orientation Groundspeed Altitude Reporting Facility
EDT Latitude Longitude Course Direction KTS MPH feet Rate Location/Type
Sat 07:11:41 AM 29.6308 -95.2633 63° Northeast 163 188 700  Level Houston Center
Sat 07:12:30 AM 29.6464 -95.2278 63° Northeast 211 243 2,100 1,753 Climbing Houston Center
Sat 07:13:10 AM 29.6817 -95.2350 350° North 212 244 3,300 2,198 Climbing Houston Center
Sat 07:14:11 AM 29.7456 -95.2519 347° North 231 266 5,800 2,826 Climbing Houston Center
Sat 07:15:11 AM 29.8192 -95.2750 345° North 267 307 9,000 2,727 Climbing Houston Center
Sat 07:16:12 AM 29.8967 -95.3014 344° North 284 327 11,300 2,430 Climbing Houston Center
Sat 07:17:12 AM 29.9869 -95.3278 346° North 335 386 13,900 2,727 Climbing Houston Center
Sat 07:18:13 AM 30.0786 -95.2956 17° North 344 396 16,800 2,803 Climbing Houston Center
Sat 07:19:14 AM 30.1714 -95.2556 20° North 351 404 19,600 2,331 Climbing Houston Center
Sat 07:20:14 AM 30.2692 -95.2142 20° North 370 426 21,500 1,983 Climbing Houston Center
Sat 07:21:15 AM 30.3714 -95.1706 20° North 387 445 23,600 2,033 Climbing Houston Center
Sat 07:22:15 AM 30.4858 -95.1214 20° North 403 464 25,600 1,934 Climbing Houston Center
Sat 07:23:16 AM 30.5961 -95.0728 21° North 418 481 27,500 1,721 Climbing Houston Center
Sat 07:24:17 AM 30.7008 -95.0089 28° Northeast 423 487 29,100 1,537 Climbing Houston Center
Sat 07:25:17 AM 30.8069 -94.9411 29° Northeast 431 496 30,600 1,587 Climbing Houston Center
Sat 07:26:18 AM 30.9147 -94.8731 28° Northeast 442 509 32,300 1,574 Climbing Houston Center
Sat 07:27:19 AM 31.0203 -94.8064 28° Northeast 429 494 33,800 1,438 Climbing Houston Center
Sat 07:28:19 AM 31.1267 -94.7386 29° Northeast 427 491 35,200 1,289 Climbing Houston Center
Sat 07:29:20 AM 31.2367 -94.6667 29° Northeast 443 510 36,400 1,131 Climbing Houston Center
Sat 07:30:21 AM 31.3542 -94.5836 31° Northeast 443 510 37,500 1,041 Climbing Houston Center
Sat 07:31:21 AM 31.4592 -94.5125 30° Northeast 439 505 38,500 744 Climbing Houston Center
Sat 07:32:22 AM 31.5650 -94.4394 30° Northeast 442 509 39,000 246 Climbing Houston Center
Sat 07:33:23 AM 31.6706 -94.3653 31° Northeast 443 510 39,000  Level Houston Center
Sat 07:34:23 AM 31.7772 -94.2903 31° Northeast 444 511 39,000  Level Houston Center
Sat 07:35:24 AM 31.8811 -94.2189 30° Northeast 442 509 39,000  Level Houston Center
Sat 07:36:06 AM 31.9708 -94.1589 30° Northeast 437 503 39,000  Level Fort Worth Center
Sat 07:37:06 AM 32.0756 -94.0839 31° Northeast 437 503 39,000  Level Fort Worth Center
Sat 07:38:06 AM 32.1797 -94.0067 32° Northeast 437 503 39,000  Level Fort Worth Center
Sat 07:39:06 AM 32.2822 -93.9314 32° Northeast 437 503 39,000  Level Fort Worth Center
Sat 07:40:06 AM 32.3906 -93.8511 32° Northeast 437 503 39,000  Level Fort Worth Center
Sat 07:41:06 AM 32.4989 -93.7753 31° Northeast 442 509 39,000  Level Fort Worth Center
Sat 07:42:06 AM 32.6056 -93.7019 30° Northeast 442 509 39,000  Level Fort Worth Center
Sat 07:43:06 AM 32.7136 -93.6211 32° Northeast 442 509 39,000  Level Fort Worth Center
Sat 07:44:06 AM 32.8197 -93.5447 31° Northeast 442 509 39,000  Level Fort Worth Center
Sat 07:45:06 AM 32.9281 -93.4683 31° Northeast 442 509 39,000  Level Fort Worth Center
Sat 07:46:06 AM 33.0242 -93.3997 31° Northeast 442 509 39,000  Level Fort Worth Center
Sat 07:47:06 AM 33.1300 -93.3231 31° Northeast 442 509 39,000  Level Fort Worth Center
Sat 07:48:06 AM 33.2361 -93.2461 31° Northeast 442 509 39,000  Level Fort Worth Center
Sat 07:50:02 AM 33.4478 -93.0958 31° Northeast 457 526 39,000  Level Memphis Center
Sat 07:51:02 AM 33.5539 -93.0169 32° Northeast 451 519 39,000  Level Memphis Center
Sat 07:52:02 AM 33.6617 -92.9453 29° Northeast 441 507 39,000  Level Memphis Center
Sat 07:53:02 AM 33.7756 -92.8986 19° North 434 499 39,000  Level Memphis Center
Sat 07:54:02 AM 33.8911 -92.8494 19° North 434 499 39,000  Level Memphis Center
Sat 07:55:02 AM 34.0069 -92.7953 21° North 434 499 39,000  Level Memphis Center
Sat 07:56:02 AM 34.1228 -92.7483 19° North 434 499 39,000  Level Memphis Center
Sat 07:57:02 AM 34.2386 -92.6964 20° North 434 499 39,000  Level Memphis Center
Sat 07:58:02 AM 34.3481 -92.6439 22° Northeast 429 494 39,000  Level Memphis Center
Sat 07:59:02 AM 34.4617 -92.5967 19° North 430 495 39,000  Level Memphis Center
Sat 08:00:02 AM 34.5792 -92.5492 18° North 430 495 39,000  Level Memphis Center
Sat 08:01:02 AM 34.6928 -92.5042 18° North 430 495 39,000  Level Memphis Center
Sat 08:02:02 AM 34.8039 -92.4614 18° North 424 488 39,000  Level Memphis Center
Sat 08:03:02 AM 34.9197 -92.4061 21° North 424 488 39,000  Level Memphis Center
Sat 08:04:02 AM 35.0331 -92.3581 19° North 424 488 39,000  Level Memphis Center
Sat 08:05:02 AM 35.1422 -92.3122 19° North 424 488 39,000  Level Memphis Center
Sat 08:06:02 AM 35.2514 -92.2692 18° North 418 481 39,000  Level Memphis Center
Sat 08:07:02 AM 35.3628 -92.2208 19° North 418 481 39,000 -200 Level Memphis Center
Sat 08:08:02 AM 35.4739 -92.1722 20° North 418 481 38,600 -850 Descending Memphis Center
Sat 08:09:02 AM 35.5811 -92.1286 18° North 413 475 37,300 -800 Descending Memphis Center
Sat 08:10:02 AM 35.6817 -92.0872 18° North 408 470 37,000 -150 Descending Memphis Center
Sat 08:11:02 AM 35.7908 -92.0383 20° North 408 470 37,000  Level Memphis Center
Sat 08:12:02 AM 35.9019 -91.9919 19° North 408 470 37,000  Level Memphis Center
Sat 08:13:02 AM 36.0108 -91.9481 18° North 408 470 37,000  Level Memphis Center
Sat 08:14:02 AM 36.1242 -91.8961 20° North 415 478 37,000  Level Memphis Center
Sat 08:15:02 AM 36.2414 -91.8494 18° North 420 483 37,000  Level Memphis Center
Sat 08:16:02 AM 36.3525 -91.8000 20° North 426 490 37,000  Level Memphis Center
Sat 08:17:02 AM 36.4572 -91.7503 21° North 419 482 37,000  Level Memphis Center
Sat 08:18:02 AM 36.5767 -91.7006 18° North 419 482 37,000  Level Memphis Center
Sat 08:18:32 AM 36.6272 -91.6764 21° North 431 496 37,000  Level Kansas City Center
Sat 08:19:33 AM 36.7639 -91.6156 20° North 433 498 37,000  Level Kansas City Center
Sat 08:20:34 AM 36.8786 -91.5664 19° North 435 501 37,000  Level Kansas City Center
Sat 08:21:35 AM 36.9925 -91.5172 19° North 433 498 37,000  Level Kansas City Center
Sat 08:22:36 AM 37.1072 -91.4650 20° North 436 502 37,000  Level Kansas City Center
Sat 08:23:37 AM 37.2256 -91.4114 20° North 443 510 37,000  Level Kansas City Center
Sat 08:24:38 AM 37.3406 -91.3594 20° North 440 506 37,000  Level Kansas City Center
Sat 08:25:39 AM 37.4547 -91.3089 19° North 437 503 37,000  Level Kansas City Center
Sat 08:26:40 AM 37.5706 -91.2578 19° North 438 504 37,000  Level Kansas City Center
Sat 08:27:42 AM 37.6867 -91.2267 12° North 426 490 37,000  Level Kansas City Center
Sat 08:28:42 AM 37.8014 -91.2011 10° North 421 484 37,000  Level Kansas City Center
Sat 08:29:43 AM 37.9178 -91.1747 10° North 423 487 37,000  Level Kansas City Center
Sat 08:30:44 AM 38.0314 -91.1453 12° North 419 482 37,000  Level Kansas City Center
Sat 08:31:45 AM 38.1625 -91.0789 22° Northeast 423 487 37,000  Level Kansas City Center
Sat 08:32:46 AM 38.2575 -91.0331 21° North 423 487 37,000  Level Kansas City Center
Sat 08:33:47 AM 38.3664 -90.9808 21° North 419 482 37,000  Level Kansas City Center
Sat 08:34:48 AM 38.4753 -90.9261 21° North 419 482 37,000  Level Kansas City Center
Sat 08:35:49 AM 38.5839 -90.8708 22° Northeast 418 481 37,000 -293 Level Kansas City Center
Sat 08:36:51 AM 38.6936 -90.8172 21° North 418 481 36,400 -780 Descending Kansas City Center
Sat 08:37:52 AM 38.8050 -90.7617 21° North 423 487 35,400 -689 Descending Kansas City Center
Sat 08:38:53 AM 38.9381 -90.6936 22° Northeast 424 488 35,000 -197 Descending Kansas City Center
Sat 08:39:54 AM 39.0478 -90.6383 21° North 422 486 35,000 -295 Level Kansas City Center
Sat 08:40:55 AM 39.1550 -90.5836 22° Northeast 415 478 34,400 -780 Descending Kansas City Center
Sat 08:41:57 AM 39.2644 -90.5297 21° North 418 481 33,400 -683 Descending Kansas City Center
Sat 08:42:58 AM 39.3747 -90.4719 22° Northeast 423 487 33,000 -197 Descending Kansas City Center
Sat 08:43:59 AM 39.4856 -90.4167 21° North 425 489 33,000  Level Kansas City Center
Sat 08:45:00 AM 39.5944 -90.3611 21° North 422 486 33,000 -295 Level Kansas City Center
Sat 08:46:01 AM 39.7028 -90.3044 22° Northeast 420 483 32,400 -780 Descending Kansas City Center
Sat 08:47:03 AM 39.8072 -90.2500 22° Northeast 415 478 31,400 -683 Descending Kansas City Center
Sat 08:48:04 AM 39.9156 -90.1939 22° Northeast 417 480 31,000 -197 Descending Kansas City Center
Sat 08:49:05 AM 40.0225 -90.1381 22° Northeast 415 478 31,000  Level Kansas City Center
Sat 08:50:06 AM 40.1342 -90.0322 36° Northeast 417 480 31,000 -293 Level Kansas City Center
Sat 08:51:08 AM 40.2203 -89.9303 42° Northeast 420 483 30,400 -780 Descending Kansas City Center
Sat 08:52:09 AM 40.3050 -89.8314 42° Northeast 413 475 29,400 -1,073 Descending Kansas City Center
Sat 08:53:11 AM 40.3864 -89.7333 43° Northeast 405 466 28,200 -1,016 Descending Chicago Center
Sat 08:54:13 AM 40.4669 -89.6367 42° Northeast 398 458 27,300 -878 Descending Chicago Center
Sat 08:55:14 AM 40.5489 -89.5356 43° Northeast 406 467 26,400 -1,024 Descending Chicago Center
Sat 08:56:16 AM 40.6539 -89.4125 42° Northeast 421 484 25,200 -1,366 Descending Chicago Center
Sat 08:57:17 AM 40.7361 -89.3136 42° Northeast 410 472 23,600 -1,756 Descending Chicago Center
Sat 08:58:19 AM 40.8156 -89.2181 42° Northeast 396 456 21,600 -2,390 Descending Chicago Center
Sat 08:59:20 AM 40.8942 -89.1236 42° Northeast 386 444 18,700 -2,927 Descending Chicago Center
Sat 09:00:22 AM 40.9744 -89.0242 43° Northeast 395 455 15,600 -2,732 Descending Chicago Center
Sat 09:01:23 AM 41.0553 -88.9269 42° Northeast 391 450 13,100 -2,000 Descending Chicago Center
Sat 09:02:25 AM 41.1275 -88.8367 43° Northeast 366 421 11,500 -1,415 Descending Chicago Center
Sat 09:03:26 AM 41.2067 -88.7392 43° Northeast 331 381 10,200 -1,171 Descending Chicago Center
Sat 09:04:28 AM 41.2667 -88.6644 43° Northeast 305 351 9,100 -1,024 Descending Chicago Center
Sat 09:05:29 AM 41.3250 -88.5933 42° Northeast 291 335 8,100 -1,024 Descending Chicago Center
Sat 09:06:31 AM 41.3825 -88.5225 43° Northeast 286 329 7,000 -1,024 Descending Chicago Center
Sat 09:07:32 AM 41.4344 -88.4494 47° Northeast 280 322 6,000 -488 Descending Chicago Center
Sat 09:08:34 AM 41.4550 -88.3511 74° East 277 319 6,000 -244 Level Chicago Center
Sat 09:09:35 AM 41.4756 -88.2553 74° East 274 315 5,500 -488 Descending Chicago Center
Sat 09:10:37 AM 41.4956 -88.1564 75° East 273 314 5,000 -242 Descending Chicago Center
Sat 09:11:39 AM 41.5164 -88.0586 74° East 271 312 5,000  Level Chicago Center
Sat 09:12:40 AM 41.5367 -87.9606 75° East 272 313 5,000  Level Chicago Center
Sat 09:13:42 AM 41.5594 -87.8467 75° East 268 308 5,000  Level Chicago Center
Sat 09:14:44 AM 41.5764 -87.7633 75° East 252 290 5,000 -244 Level Chicago Center
Sat 09:15:45 AM 41.5914 -87.6897 75° East 229 264 4,500 -488 Descending Chicago Center
Sat 09:16:47 AM 41.6056 -87.6253 74° East 203 234 4,000 -341 Descending Chicago Center
Sat 09:17:48 AM 41.6400 -87.5811 44° Northeast 185 213 3,800 -488 Descending Chicago Center
Sat 09:18:50 AM 41.6842 -87.6117 333° Northwest 185 213 3,000 -774 Descending Chicago Center
Sat 09:19:52 AM 41.7242 -87.6669 314° West 178 205 2,200 -780 Descending Chicago Center
Sat 09:20:53 AM 41.7536 -87.7086 313° West 169 194 1,400 -634 Descending Chicago Center
Sat 09:21:55 AM 41.7794 -87.7447 314° West 152 175 900 -484 Descending Chicago Center

Login

Don't have an account? Register now (free) for customized features, flight alerts, and more!